createdAt,value
2017-04-28T00:00:41.767Z,65.09
2017-04-28T00:03:09.456Z,65.81
2017-04-28T00:05:37.004Z,65.21
2017-04-28T00:08:04.520Z,66.10
2017-04-28T00:10:32.162Z,66.53
2017-04-28T00:12:59.765Z,66.59
2017-04-28T00:15:27.404Z,66.64
2017-04-28T00:17:54.920Z,66.59
2017-04-28T00:20:22.866Z,66.56
2017-04-28T00:22:50.368Z,67.02
2017-04-28T00:25:17.902Z,67.16
2017-04-28T00:27:45.465Z,66.55
2017-04-28T00:30:13.013Z,66.64
2017-04-28T00:32:40.571Z,66.76
2017-04-28T00:35:08.071Z,66.90
2017-04-28T00:37:35.871Z,67.22
2017-04-28T00:40:03.390Z,66.42
2017-04-28T00:42:30.969Z,66.14
2017-04-28T00:44:58.535Z,65.43
2017-04-28T00:47:26.111Z,66.14
2017-04-28T00:49:53.991Z,65.39
2017-04-28T00:52:21.511Z,64.80
2017-04-28T00:54:49.024Z,66.37
2017-04-28T00:57:16.569Z,66.56
2017-04-28T00:59:44.138Z,65.66
2017-04-28T01:02:12.076Z,65.32
2017-04-28T01:04:39.598Z,65.62
2017-04-28T01:07:07.160Z,66.02
2017-04-28T01:09:34.708Z,65.92
2017-04-28T01:12:02.219Z,65.99
2017-04-28T01:14:29.770Z,66.96
2017-04-28T01:16:57.297Z,66.78
2017-04-28T01:19:24.864Z,66.22
2017-04-28T01:21:52.369Z,66.25
2017-04-28T01:24:19.881Z,66.63
2017-04-28T01:26:47.524Z,66.40
2017-04-28T01:29:15.043Z,66.80
2017-04-28T01:31:42.633Z,66.71
2017-04-28T01:34:10.149Z,66.37
2017-04-28T01:36:37.696Z,66.71
2017-04-28T01:39:05.261Z,66.73
2017-04-28T01:41:33.228Z,66.73
2017-04-28T01:44:00.732Z,66.56
2017-04-28T01:46:28.243Z,67.39
2017-04-28T01:48:56.172Z,67.30
2017-04-28T01:51:23.691Z,68.04
2017-04-28T01:53:51.212Z,67.71
2017-04-28T01:56:18.769Z,68.05
2017-04-28T01:58:46.284Z,67.83
2017-04-28T02:01:13.799Z,68.20
2017-04-28T02:03:41.360Z,68.19
2017-04-28T02:06:08.883Z,68.77
2017-04-28T02:08:36.554Z,69.02
2017-04-28T02:11:04.156Z,68.72
2017-04-28T02:13:31.684Z,69.10
2017-04-28T02:15:59.223Z,69.54
2017-04-28T02:18:26.811Z,70.23
2017-04-28T02:20:54.367Z,71.23
2017-04-28T02:23:21.872Z,72.42
2017-04-28T02:25:49.540Z,72.22
2017-04-28T02:28:17.072Z,72.44
2017-04-28T02:30:44.591Z,72.21
2017-04-28T02:33:12.129Z,71.22
2017-04-28T02:35:39.648Z,71.72
2017-04-28T02:38:07.587Z,72.06
2017-04-28T02:40:35.123Z,71.16
2017-04-28T02:43:02.651Z,71.85
2017-04-28T02:45:30.199Z,72.14
2017-04-28T02:47:57.724Z,72.26
2017-04-28T02:50:25.688Z,71.84
2017-04-28T02:52:53.212Z,71.23
2017-04-28T02:55:20.736Z,70.89
2017-04-28T02:57:48.310Z,72.02
2017-04-28T03:00:15.952Z,72.20
2017-04-28T03:02:43.467Z,72.09
2017-04-28T03:05:11.035Z,73.95
2017-04-28T03:07:38.564Z,72.97
2017-04-28T03:10:06.147Z,73.14
2017-04-28T03:12:33.692Z,71.77
2017-04-28T03:15:01.219Z,71.39
2017-04-28T03:17:28.772Z,72.40
2017-04-28T03:19:56.303Z,73.55
2017-04-28T03:22:24.167Z,74.51
2017-04-28T03:24:51.738Z,74.48
2017-04-28T03:27:19.268Z,73.61
2017-04-28T03:29:46.812Z,73.48
2017-04-28T03:32:14.373Z,73.98
2017-04-28T03:34:42.250Z,73.21
2017-04-28T03:37:09.788Z,72.02
2017-04-28T03:39:37.376Z,71.78
2017-04-28T03:42:04.937Z,71.06
2017-04-28T03:44:32.442Z,71.81
2017-04-28T03:47:00.259Z,72.74
2017-04-28T03:49:27.827Z,72.90
2017-04-28T03:51:55.361Z,73.50
2017-04-28T03:54:22.972Z,73.87
2017-04-28T03:56:50.559Z,74.67
2017-04-28T03:59:18.092Z,74.91
2017-04-28T04:01:45.687Z,73.66
2017-04-28T04:04:13.223Z,72.95
2017-04-28T04:06:40.793Z,72.78
2017-04-28T04:09:08.311Z,72.96
2017-04-28T04:11:35.829Z,73.63
2017-04-28T04:14:03.820Z,73.24
2017-04-28T04:16:31.370Z,74.77
2017-04-28T04:18:58.908Z,75.77
2017-04-28T04:21:26.472Z,75.73
2017-04-28T04:23:54.004Z,75.27
2017-04-28T04:26:21.591Z,74.67
2017-04-28T04:28:49.112Z,75.34
2017-04-28T04:31:17.079Z,75.23
2017-04-28T04:33:44.608Z,75.45
2017-04-28T04:36:12.140Z,75.30
2017-04-28T04:38:39.694Z,74.46
2017-04-28T04:41:07.279Z,74.88
2017-04-28T04:43:35.134Z,73.41
2017-04-28T04:46:02.668Z,72.88
2017-04-28T04:48:30.191Z,71.87
2017-04-28T04:50:57.761Z,71.98
2017-04-28T04:53:25.285Z,72.00
2017-04-28T04:55:52.807Z,73.29
2017-04-28T04:58:20.354Z,74.42
2017-04-28T05:00:47.887Z,74.55
2017-04-28T05:03:15.884Z,73.75
2017-04-28T05:05:43.403Z,72.86
2017-04-28T05:08:11.009Z,72.01
2017-04-28T05:10:38.588Z,71.41
2017-04-28T05:13:06.110Z,71.07
2017-04-28T05:15:33.635Z,71.03
2017-04-28T05:18:01.349Z,71.04
2017-04-28T05:20:28.868Z,70.99
2017-04-28T05:22:56.407Z,71.03
2017-04-28T05:25:23.947Z,70.66
2017-04-28T05:27:51.465Z,70.76
2017-04-28T05:30:19.176Z,70.61
2017-04-28T05:32:46.703Z,70.69
2017-04-28T05:35:14.220Z,71.00
2017-04-28T05:37:41.897Z,70.60
2017-04-28T05:40:09.426Z,70.82
2017-04-28T05:42:36.941Z,70.62
2017-04-28T05:45:04.594Z,70.23
2017-04-28T05:47:32.124Z,70.99
2017-04-28T05:49:59.672Z,72.08
2017-04-28T05:52:27.256Z,71.34
2017-04-28T05:54:59.243Z,71.26
2017-04-28T05:57:26.818Z,70.82
2017-04-28T05:59:54.340Z,70.44
2017-04-28T06:02:21.915Z,70.67
2017-04-28T06:04:49.452Z,70.77
2017-04-28T06:07:17.261Z,70.62
2017-04-28T06:09:44.779Z,70.30
2017-04-28T06:12:12.328Z,70.37
2017-04-28T06:14:39.891Z,70.36
2017-04-28T06:17:07.428Z,69.67
2017-04-28T06:19:35.356Z,69.77
2017-04-28T06:22:02.888Z,70.73
2017-04-28T06:24:30.420Z,69.37
2017-04-28T06:26:57.985Z,66.41
2017-04-28T06:29:25.527Z,65.98
2017-04-28T06:31:53.242Z,65.40
2017-04-28T06:34:20.789Z,64.07
2017-04-28T06:36:48.331Z,64.56
2017-04-28T06:39:15.903Z,65.09
2017-04-28T06:41:43.419Z,65.54
2017-04-28T06:44:11.148Z,65.51
2017-04-28T06:46:38.687Z,62.49
2017-04-28T06:49:06.228Z,61.61
2017-04-28T06:51:33.789Z,60.50
2017-04-28T06:54:01.327Z,58.98
2017-04-28T06:56:28.973Z,58.92
2017-04-28T06:58:56.511Z,59.26
2017-04-28T07:01:24.679Z,58.45
2017-04-28T07:03:52.211Z,59.07
2017-04-28T07:06:19.747Z,58.52
2017-04-28T07:08:47.310Z,58.02
2017-04-28T07:11:14.846Z,57.79
2017-04-28T07:13:42.567Z,57.58
2017-04-28T07:16:10.168Z,56.93
2017-04-28T07:18:37.698Z,57.09
2017-04-28T07:21:05.316Z,57.06
2017-04-28T07:23:32.972Z,57.60
2017-04-28T07:26:00.763Z,56.70
2017-04-28T07:28:28.283Z,56.17
2017-04-28T07:30:55.826Z,56.90
2017-04-28T07:33:23.406Z,57.17
2017-04-28T07:35:50.936Z,57.09
2017-04-28T07:38:18.508Z,57.44
2017-04-28T07:40:46.049Z,57.26
2017-04-28T07:43:13.876Z,57.71
2017-04-28T07:45:41.410Z,57.44
2017-04-28T07:48:08.966Z,57.70
2017-04-28T07:50:36.521Z,58.18
2017-04-28T07:53:04.040Z,57.71
2017-04-28T07:55:32.078Z,57.86
2017-04-28T07:57:59.590Z,58.43
2017-04-28T08:00:27.112Z,58.63
2017-04-28T08:02:54.671Z,57.91
2017-04-28T08:05:22.250Z,58.60
2017-04-28T08:07:49.949Z,58.47
2017-04-28T08:10:17.474Z,58.44
2017-04-28T08:12:45.001Z,57.71
2017-04-28T08:15:12.564Z,57.68
2017-04-28T08:17:40.108Z,56.84
2017-04-28T08:20:07.672Z,56.22
2017-04-28T08:22:35.212Z,57.14
2017-04-28T08:25:02.992Z,56.77
2017-04-28T08:27:30.558Z,55.87
2017-04-28T08:29:58.085Z,55.74
2017-04-28T08:32:25.676Z,56.24
2017-04-28T08:34:53.208Z,55.84
2017-04-28T08:37:21.059Z,55.92
2017-04-28T08:39:48.604Z,55.09
2017-04-28T08:42:16.141Z,54.21
2017-04-28T08:44:43.715Z,55.00
2017-04-28T08:47:11.241Z,54.56
2017-04-28T08:49:38.805Z,54.25
2017-04-28T08:52:06.325Z,53.45
2017-04-28T08:54:34.105Z,53.35
2017-04-28T08:57:01.630Z,54.09
2017-04-28T08:59:29.148Z,54.04
2017-04-28T09:01:56.809Z,53.33
2017-04-28T09:04:24.364Z,53.42
2017-04-28T09:06:52.313Z,53.65
2017-04-28T09:09:19.832Z,53.85
2017-04-28T09:11:47.360Z,53.85
2017-04-28T09:14:14.940Z,52.98
2017-04-28T09:16:42.466Z,52.11
2017-04-28T09:19:10.033Z,52.37
2017-04-28T09:21:37.548Z,52.62
2017-04-28T09:24:05.068Z,52.41
2017-04-28T09:26:32.641Z,52.11
2017-04-28T09:29:00.184Z,51.50
2017-04-28T09:31:28.113Z,52.44
2017-04-28T09:33:55.647Z,52.47
2017-04-28T09:36:23.175Z,52.02
2017-04-28T09:38:50.733Z,50.83
2017-04-28T09:41:18.251Z,51.54
2017-04-28T09:43:45.944Z,51.14
2017-04-28T09:46:13.469Z,51.81
2017-04-28T09:48:41.007Z,52.31
2017-04-28T09:51:08.604Z,52.29
2017-04-28T09:53:40.213Z,52.17
2017-04-28T09:56:07.840Z,53.16
2017-04-28T09:58:35.374Z,53.53
2017-04-28T10:01:03.104Z,53.90
2017-04-28T10:03:30.623Z,53.44
2017-04-28T10:05:58.163Z,52.75
2017-04-28T10:08:25.735Z,53.54
2017-04-28T10:10:53.265Z,54.51
2017-04-28T10:13:20.818Z,54.34
2017-04-28T10:15:48.339Z,54.56
2017-04-28T10:18:16.216Z,54.79
2017-04-28T10:20:43.749Z,54.61
2017-04-28T10:23:11.321Z,55.56
2017-04-28T10:25:38.893Z,55.44
2017-04-28T10:28:06.415Z,55.27
2017-04-28T10:30:34.209Z,55.88
2017-04-28T10:33:01.732Z,56.41
2017-04-28T10:35:29.264Z,56.43
2017-04-28T10:37:56.836Z,56.20
2017-04-28T10:40:24.364Z,56.66
2017-04-28T10:42:52.048Z,57.70
2017-04-28T10:45:19.584Z,56.64
2017-04-28T10:47:47.107Z,57.19
2017-04-28T10:50:14.680Z,57.38
2017-04-28T10:52:42.228Z,58.15
2017-04-28T10:55:09.789Z,58.53
2017-04-28T10:57:37.316Z,58.37
2017-04-28T11:00:05.016Z,58.93
2017-04-28T11:02:32.549Z,58.82
2017-04-28T11:05:00.113Z,59.26
2017-04-28T11:07:27.682Z,59.42
2017-04-28T11:09:55.213Z,60.20
2017-04-28T11:12:22.783Z,59.83
2017-04-28T11:14:50.308Z,60.55
2017-04-28T11:17:18.250Z,61.03
2017-04-28T11:19:45.773Z,61.28
2017-04-28T11:22:13.321Z,61.58
2017-04-28T11:24:40.873Z,61.73
2017-04-28T11:27:08.408Z,61.15
2017-04-28T11:29:35.963Z,61.16
2017-04-28T11:32:03.488Z,61.27
2017-04-28T11:34:31.564Z,61.40
2017-04-28T11:36:59.104Z,60.70
2017-04-28T11:39:26.649Z,61.34
2017-04-28T11:41:54.220Z,60.61
2017-04-28T11:44:21.740Z,60.47
2017-04-28T11:46:49.504Z,59.62
2017-04-28T11:49:17.031Z,59.56
2017-04-28T11:51:44.561Z,59.43
2017-04-28T11:54:12.125Z,58.63
2017-04-28T11:56:39.627Z,58.77
2017-04-28T11:59:07.485Z,58.96
2017-04-28T12:01:35.029Z,57.95
2017-04-28T12:04:02.555Z,57.66
2017-04-28T12:06:30.125Z,57.18
2017-04-28T12:08:57.691Z,56.01
2017-04-28T12:11:25.452Z,55.42
2017-04-28T12:13:52.985Z,54.55
2017-04-28T12:16:20.518Z,55.35
2017-04-28T12:18:48.088Z,53.86
2017-04-28T12:21:15.633Z,52.55
2017-04-28T12:23:43.365Z,53.49
2017-04-28T12:26:10.900Z,54.55
2017-04-28T12:28:38.437Z,54.48
2017-04-28T12:31:06.003Z,54.45
2017-04-28T12:33:33.545Z,54.80
2017-04-28T12:36:01.556Z,53.61
2017-04-28T12:38:29.103Z,54.71
2017-04-28T12:40:56.635Z,54.80
2017-04-28T12:43:24.224Z,54.00
2017-04-28T12:45:51.784Z,54.16
2017-04-28T12:48:19.432Z,54.33
2017-04-28T12:50:46.960Z,53.01
2017-04-28T12:53:14.870Z,52.55
2017-04-28T12:55:42.392Z,52.95
2017-04-28T12:58:09.982Z,53.36
2017-04-28T13:00:37.614Z,52.56
2017-04-28T13:03:05.141Z,52.06
2017-04-28T13:05:32.938Z,52.89
2017-04-28T13:08:00.493Z,52.94
2017-04-28T13:10:28.029Z,53.30
2017-04-28T13:12:55.739Z,53.61
2017-04-28T13:15:23.284Z,53.51
2017-04-28T13:17:50.827Z,53.35
2017-04-28T13:20:18.535Z,52.79
2017-04-28T13:22:46.074Z,52.59
2017-04-28T13:25:13.663Z,52.76
2017-04-28T13:27:41.271Z,51.87
2017-04-28T13:30:08.832Z,51.73
2017-04-28T13:32:36.696Z,50.98
2017-04-28T13:35:04.339Z,49.90
2017-04-28T13:37:31.890Z,49.32
2017-04-28T13:39:59.505Z,49.59
2017-04-28T13:42:27.036Z,49.59
2017-04-28T13:44:54.767Z,49.14
2017-04-28T13:47:22.329Z,48.54
2017-04-28T13:49:49.872Z,48.27
2017-04-28T13:52:17.444Z,47.74
2017-04-28T13:54:44.991Z,48.10
2017-04-28T13:57:12.700Z,47.59
2017-04-28T13:59:40.235Z,46.79
2017-04-28T14:02:07.761Z,47.40
2017-04-28T14:04:35.352Z,47.84
2017-04-28T14:07:02.922Z,46.61
2017-04-28T14:09:30.647Z,46.98
2017-04-28T14:11:58.198Z,46.12
2017-04-28T14:14:25.745Z,46.47
2017-04-28T14:16:53.345Z,46.74
2017-04-28T14:19:20.876Z,46.90
2017-04-28T14:21:48.445Z,47.24
2017-04-28T14:24:16.001Z,46.43
2017-04-28T14:26:43.754Z,47.10
2017-04-28T14:29:11.275Z,46.80
2017-04-28T14:31:38.820Z,47.57
2017-04-28T14:34:06.415Z,49.06
2017-04-28T14:36:33.963Z,50.25
2017-04-28T14:39:01.536Z,51.17
2017-04-28T14:41:29.089Z,49.99
2017-04-28T14:43:57.035Z,52.43
2017-04-28T14:46:24.621Z,54.03
2017-04-28T14:48:52.161Z,52.74
2017-04-28T14:51:19.730Z,53.31
2017-04-28T14:53:47.277Z,53.69
2017-04-28T14:56:15.008Z,54.46
2017-04-28T14:58:42.612Z,56.07
2017-04-28T15:01:10.188Z,56.48
2017-04-28T15:03:37.808Z,56.82
2017-04-28T15:06:05.376Z,57.88
2017-04-28T15:08:33.091Z,58.33
2017-04-28T15:11:00.717Z,57.98
2017-04-28T15:13:28.277Z,58.14
2017-04-28T15:15:56.009Z,57.83
2017-04-28T15:18:23.637Z,57.77
2017-04-28T15:20:51.583Z,58.07
2017-04-28T15:23:19.121Z,58.68
2017-04-28T15:25:46.695Z,60.26
2017-04-28T15:28:14.283Z,60.39
2017-04-28T15:30:41.830Z,59.44
2017-04-28T15:33:09.529Z,57.69
2017-04-28T15:35:37.128Z,56.37
2017-04-28T15:38:04.720Z,56.17
2017-04-28T15:40:32.412Z,55.69
2017-04-28T15:43:00.012Z,56.03
2017-04-28T15:45:27.724Z,55.90
2017-04-28T15:47:55.296Z,55.99
2017-04-28T15:50:22.840Z,59.39
2017-04-28T15:52:50.556Z,61.67
2017-04-28T15:55:18.179Z,62.26
2017-04-28T15:57:45.977Z,62.77
2017-04-28T16:00:13.561Z,63.10
2017-04-28T16:02:41.223Z,64.71
2017-04-28T16:05:08.852Z,64.73
2017-04-28T16:07:36.444Z,65.26
2017-04-28T16:10:04.373Z,65.61
2017-04-28T16:12:31.961Z,66.69
2017-04-28T16:14:59.528Z,66.32
2017-04-28T16:17:27.120Z,65.58
2017-04-28T16:19:54.692Z,64.25
2017-04-28T16:22:22.629Z,64.04
2017-04-28T16:24:50.189Z,63.16
2017-04-28T16:27:17.761Z,62.40
2017-04-28T16:29:45.448Z,62.10
2017-04-28T16:32:12.979Z,61.49
2017-04-28T16:34:40.836Z,61.95
2017-04-28T16:37:08.397Z,62.34
2017-04-28T16:39:36.078Z,61.76
2017-04-28T16:42:03.643Z,61.93
2017-04-28T16:44:31.229Z,62.05
2017-04-28T16:46:59.157Z,62.10
2017-04-28T16:49:26.704Z,63.48
2017-04-28T16:51:54.254Z,61.93
2017-04-28T16:54:22.705Z,61.46
2017-04-28T16:56:50.319Z,62.18
2017-04-28T16:59:17.832Z,61.13
2017-04-28T17:01:45.728Z,60.95
2017-04-28T17:04:13.267Z,61.63
2017-04-28T17:06:40.891Z,60.73
2017-04-28T17:09:08.656Z,60.70
2017-04-28T17:11:36.208Z,60.06
2017-04-28T17:14:03.753Z,60.38
2017-04-28T17:16:31.324Z,60.06
2017-04-28T17:18:58.863Z,60.58
2017-04-28T17:21:26.556Z,60.47
2017-04-28T17:23:54.113Z,60.57
2017-04-28T17:26:21.639Z,60.78
2017-04-28T17:28:49.527Z,60.67
2017-04-28T17:31:17.099Z,59.13
2017-04-28T17:33:44.791Z,60.15
2017-04-28T17:36:12.316Z,60.85
2017-04-28T17:38:39.841Z,60.50
2017-04-28T17:41:07.479Z,61.44
2017-04-28T17:43:35.010Z,60.17
2017-04-28T17:46:02.801Z,59.28
2017-04-28T17:48:30.341Z,59.08
2017-04-28T17:50:57.891Z,59.33
2017-04-28T17:53:25.462Z,59.39
2017-04-28T17:55:53.019Z,59.20
2017-04-28T17:58:20.795Z,60.05
2017-04-28T18:00:48.319Z,60.68
2017-04-28T18:03:15.851Z,60.83
2017-04-28T18:05:43.436Z,60.78
2017-04-28T18:08:10.974Z,61.88
2017-04-28T18:10:38.809Z,61.81
2017-04-28T18:13:06.340Z,61.79
2017-04-28T18:15:33.874Z,62.02
2017-04-28T18:18:01.536Z,61.36
2017-04-28T18:20:29.108Z,61.74
2017-04-28T18:22:56.825Z,61.89
2017-04-28T18:25:24.482Z,62.41
2017-04-28T18:27:52.073Z,62.47
2017-04-28T18:30:19.656Z,61.43
2017-04-28T18:32:47.204Z,61.90
2017-04-28T18:35:14.848Z,62.06
2017-04-28T18:37:42.371Z,60.77
2017-04-28T18:40:09.906Z,59.44
2017-04-28T18:42:37.474Z,59.29
2017-04-28T18:45:05.008Z,60.39
2017-04-28T18:47:32.577Z,59.64
2017-04-28T18:50:00.138Z,57.60
2017-04-28T18:52:27.834Z,58.81
2017-04-28T18:54:55.377Z,59.51
2017-04-28T18:57:22.960Z,59.75
2017-04-28T18:59:50.538Z,60.05
2017-04-28T19:02:18.100Z,61.04
2017-04-28T19:04:46.000Z,61.93
2017-04-28T19:07:13.539Z,63.64
2017-04-28T19:09:41.114Z,64.48
2017-04-28T19:12:08.672Z,63.35
2017-04-28T19:14:36.202Z,64.39
2017-04-28T19:17:03.882Z,63.98
2017-04-28T19:19:31.416Z,63.91
2017-04-28T19:21:58.952Z,64.21
2017-04-28T19:24:26.524Z,64.26
2017-04-28T19:26:54.104Z,63.88
2017-04-28T19:29:22.020Z,63.85
2017-04-28T19:31:49.557Z,64.55
2017-04-28T19:34:17.093Z,64.34
2017-04-28T19:36:44.677Z,64.39
2017-04-28T19:39:12.217Z,64.72
2017-04-28T19:41:39.952Z,65.34
2017-04-28T19:44:07.486Z,66.00
2017-04-28T19:46:35.005Z,65.84
2017-04-28T19:49:02.593Z,66.52
2017-04-28T19:51:30.114Z,66.28
2017-04-28T19:53:57.918Z,66.09
2017-04-28T19:56:25.451Z,66.00
2017-04-28T19:58:52.972Z,66.11
2017-04-28T20:01:20.528Z,66.14
2017-04-28T20:03:48.081Z,66.45
2017-04-28T20:06:15.667Z,66.34
2017-04-28T20:08:43.219Z,66.16
2017-04-28T20:11:10.915Z,66.77
2017-04-28T20:13:38.453Z,64.47
2017-04-28T20:16:06.012Z,65.33
2017-04-28T20:18:33.563Z,64.72
2017-04-28T20:21:01.095Z,64.89
2017-04-28T20:23:28.824Z,65.01
2017-04-28T20:25:56.373Z,65.12
2017-04-28T20:28:23.909Z,64.54
2017-04-28T20:30:51.475Z,63.67
2017-04-28T20:33:19.016Z,63.90
2017-04-28T20:35:46.620Z,63.79
2017-04-28T20:38:14.193Z,63.80
2017-04-28T20:40:41.724Z,63.64
2017-04-28T20:43:09.611Z,63.36
2017-04-28T20:45:37.155Z,63.61
2017-04-28T20:48:04.704Z,63.79
2017-04-28T20:50:32.317Z,63.59
2017-04-28T20:52:59.849Z,63.58
2017-04-28T20:55:27.412Z,63.96
2017-04-28T20:57:54.943Z,62.66
2017-04-28T21:00:22.688Z,62.94
2017-04-28T21:02:50.215Z,62.75
2017-04-28T21:05:17.727Z,63.35
2017-04-28T21:07:45.304Z,63.36
2017-04-28T21:10:12.973Z,63.68
2017-04-28T21:12:40.657Z,63.55
2017-04-28T21:15:08.182Z,63.42
2017-04-28T21:17:35.708Z,63.52
2017-04-28T21:20:03.272Z,64.29
2017-04-28T21:22:30.856Z,64.45
2017-04-28T21:24:58.766Z,64.87
2017-04-28T21:27:26.299Z,65.54
2017-04-28T21:29:53.822Z,65.91
2017-04-28T21:32:21.392Z,65.66
2017-04-28T21:34:48.918Z,65.42
2017-04-28T21:37:16.877Z,65.46
2017-04-28T21:39:44.419Z,65.55
2017-04-28T21:42:11.961Z,66.05
2017-04-28T21:44:39.532Z,65.60
2017-04-28T21:47:07.056Z,65.56
2017-04-28T21:49:34.962Z,65.89
2017-04-28T21:52:02.492Z,65.55
2017-04-28T21:54:30.062Z,66.23
2017-04-28T21:56:57.608Z,65.82
2017-04-28T21:59:25.140Z,65.27
2017-04-28T22:01:53.290Z,65.99
2017-04-28T22:04:20.892Z,65.86
2017-04-28T22:06:48.424Z,66.08
2017-04-28T22:09:15.985Z,65.37
2017-04-28T22:11:43.682Z,65.30
2017-04-28T22:14:11.280Z,65.40
2017-04-28T22:16:59.652Z,65.53
2017-04-28T22:19:27.185Z,65.30
2017-04-28T22:21:54.709Z,66.01
2017-04-28T22:24:22.302Z,65.46
2017-04-28T22:26:49.848Z,66.09
2017-04-28T22:29:17.608Z,66.32
2017-04-28T22:31:45.140Z,66.13
2017-04-28T22:34:12.692Z,65.53
2017-04-28T22:36:40.302Z,65.13
2017-04-28T22:39:07.851Z,64.51
2017-04-28T22:41:35.706Z,64.77
2017-04-28T22:44:03.248Z,64.74
2017-04-28T22:46:30.764Z,65.09
2017-04-28T22:48:58.378Z,65.28
2017-04-28T22:51:25.953Z,65.20
2017-04-28T22:53:53.656Z,65.47
2017-04-28T22:56:21.188Z,65.30
2017-04-28T22:58:48.710Z,65.71
2017-04-28T23:01:16.252Z,65.40
2017-04-28T23:03:43.797Z,65.35
2017-04-28T23:06:11.616Z,65.45
2017-04-28T23:08:39.129Z,65.49
2017-04-28T23:11:06.668Z,65.55
2017-04-28T23:13:34.228Z,65.42
2017-04-28T23:16:01.742Z,65.28
2017-04-28T23:18:29.480Z,65.57
2017-04-28T23:20:57.016Z,65.98
2017-04-28T23:23:24.632Z,66.60
2017-04-28T23:25:52.228Z,64.98
2017-04-28T23:28:19.761Z,65.73
2017-04-28T23:30:47.320Z,65.40
2017-04-28T23:33:14.833Z,65.31
2017-04-28T23:35:42.556Z,65.30
2017-04-28T23:38:10.084Z,65.22
2017-04-28T23:40:37.607Z,64.70
2017-04-28T23:43:05.159Z,64.48
2017-04-28T23:45:32.725Z,64.60
2017-04-28T23:48:00.436Z,64.59
2017-04-28T23:50:28.011Z,64.32
2017-04-28T23:52:55.543Z,65.13
2017-04-28T23:55:23.125Z,63.90
2017-04-28T23:57:50.619Z,64.59
